sensor_id;sensor_type;location;lat;lon;timestamp;pressure;altitude;pressure_sealevel;temperature;humidity
43436;BME280;36399;51.444;-2.018;2023-04-15T00:01:27;100497.03;;;2.20;100.00
43436;BME280;36399;51.444;-2.018;2023-04-15T00:03:54;100506.31;;;2.34;100.00
43436;BME280;36399;51.444;-2.018;2023-04-15T00:06:21;100515.47;;;2.45;100.00
43436;BME280;36399;51.444;-2.018;2023-04-15T00:08:47;100511.50;;;2.34;100.00
43436;BME280;36399;51.444;-2.018;2023-04-15T00:11:14;100517.38;;;2.49;100.00
43436;BME280;36399;51.444;-2.018;2023-04-15T00:13:40;100522.28;;;2.43;100.00
43436;BME280;36399;51.444;-2.018;2023-04-15T00:16:07;100529.25;;;2.44;100.00
43436;BME280;36399;51.444;-2.018;2023-04-15T00:18:34;100534.97;;;2.57;100.00
43436;BME280;36399;51.444;-2.018;2023-04-15T00:21:00;100537.13;;;2.65;100.00
43436;BME280;36399;51.444;-2.018;2023-04-15T00:23:26;100530.38;;;2.69;100.00
43436;BME280;36399;51.444;-2.018;2023-04-15T00:25:53;100532.16;;;2.70;100.00
43436;BME280;36399;51.444;-2.018;2023-04-15T00:28:19;100538.97;;;2.68;100.00
43436;BME280;36399;51.444;-2.018;2023-04-15T00:30:45;100542.13;;;2.61;100.00
43436;BME280;36399;51.444;-2.018;2023-04-15T00:33:12;100547.28;;;2.61;100.00
43436;BME280;36399;51.444;-2.018;2023-04-15T00:35:39;100550.84;;;2.63;100.00
43436;BME280;36399;51.444;-2.018;2023-04-15T00:38:05;100560.91;;;2.57;100.00
43436;BME280;36399;51.444;-2.018;2023-04-15T00:40:34;100562.09;;;2.45;100.00
43436;BME280;36399;51.444;-2.018;2023-04-15T00:43:01;100568.25;;;2.47;100.00
43436;BME280;36399;51.444;-2.018;2023-04-15T00:45:27;100569.47;;;2.36;100.00
43436;BME280;36399;51.444;-2.018;2023-04-15T00:47:53;100578.72;;;2.31;100.00
43436;BME280;36399;51.444;-2.018;2023-04-15T00:50:19;100573.25;;;2.25;100.00
43436;BME280;36399;51.444;-2.018;2023-04-15T00:52:45;100579.16;;;2.22;100.00
43436;BME280;36399;51.444;-2.018;2023-04-15T00:55:11;100577.91;;;2.32;100.00
43436;BME280;36399;51.444;-2.018;2023-04-15T00:57:38;100574.88;;;2.23;100.00
43436;BME280;36399;51.444;-2.018;2023-04-15T01:00:05;100581.22;;;2.30;100.00
43436;BME280;36399;51.444;-2.018;2023-04-15T01:02:34;100590.56;;;2.26;100.00
43436;BME280;36399;51.444;-2.018;2023-04-15T01:05:00;100592.47;;;2.30;100.00
43436;BME280;36399;51.444;-2.018;2023-04-15T01:07:26;100593.97;;;2.25;100.00
43436;BME280;36399;51.444;-2.018;2023-04-15T01:09:52;100597.91;;;2.17;100.00
43436;BME280;36399;51.444;-2.018;2023-04-15T01:12:18;100601.53;;;2.20;100.00
43436;BME280;36399;51.444;-2.018;2023-04-15T01:14:45;100607.44;;;2.18;100.00
43436;BME280;36399;51.444;-2.018;2023-04-15T01:17:11;100614.66;;;2.07;100.00
43436;BME280;36399;51.444;-2.018;2023-04-15T01:19:38;100619.69;;;2.04;100.00
43436;BME280;36399;51.444;-2.018;2023-04-15T01:22:04;100623.81;;;2.01;100.00
43436;BME280;36399;51.444;-2.018;2023-04-15T01:24:34;100630.94;;;2.05;100.00
43436;BME280;36399;51.444;-2.018;2023-04-15T01:27:01;100631.72;;;2.20;100.00
43436;BME280;36399;51.444;-2.018;2023-04-15T01:29:28;100642.72;;;2.16;100.00
43436;BME280;36399;51.444;-2.018;2023-04-15T01:31:54;100652.28;;;2.17;100.00
43436;BME280;36399;51.444;-2.018;2023-04-15T01:34:21;100654.78;;;2.33;100.00
43436;BME280;36399;51.444;-2.018;2023-04-15T01:36:47;100656.06;;;2.24;100.00
43436;BME280;36399;51.444;-2.018;2023-04-15T01:39:13;100663.59;;;2.19;100.00
43436;BME280;36399;51.444;-2.018;2023-04-15T01:41:39;100667.31;;;2.24;100.00
43436;BME280;36399;51.444;-2.018;2023-04-15T01:44:07;100671.81;;;2.28;100.00
43436;BME280;36399;51.444;-2.018;2023-04-15T01:46:33;100676.25;;;2.31;100.00
43436;BME280;36399;51.444;-2.018;2023-04-15T01:48:59;100672.03;;;2.33;100.00
43436;BME280;36399;51.444;-2.018;2023-04-15T01:51:25;100670.63;;;2.21;100.00
43436;BME280;36399;51.444;-2.018;2023-04-15T01:53:52;100683.66;;;2.23;100.00
43436;BME280;36399;51.444;-2.018;2023-04-15T01:56:18;100679.38;;;2.41;100.00
43436;BME280;36399;51.444;-2.018;2023-04-15T01:58:44;100691.22;;;2.36;100.00
43436;BME280;36399;51.444;-2.018;2023-04-15T02:01:10;100697.88;;;2.31;100.00
43436;BME280;36399;51.444;-2.018;2023-04-15T02:03:36;100697.22;;;2.35;100.00
43436;BME280;36399;51.444;-2.018;2023-04-15T02:06:04;100699.34;;;2.26;100.00
43436;BME280;36399;51.444;-2.018;2023-04-15T02:08:30;100709.19;;;2.15;100.00
43436;BME280;36399;51.444;-2.018;2023-04-15T02:10:56;100705.41;;;2.27;100.00
43436;BME280;36399;51.444;-2.018;2023-04-15T02:13:22;100713.63;;;2.18;100.00
43436;BME280;36399;51.444;-2.018;2023-04-15T02:15:49;100711.03;;;2.18;100.00
43436;BME280;36399;51.444;-2.018;2023-04-15T02:18:15;100709.72;;;2.26;100.00
43436;BME280;36399;51.444;-2.018;2023-04-15T02:20:41;100711.63;;;2.30;100.00
43436;BME280;36399;51.444;-2.018;2023-04-15T02:23:11;100712.97;;;2.22;100.00
43436;BME280;36399;51.444;-2.018;2023-04-15T02:25:37;100720.00;;;2.25;100.00
43436;BME280;36399;51.444;-2.018;2023-04-15T02:28:04;100714.81;;;2.25;100.00
43436;BME280;36399;51.444;-2.018;2023-04-15T02:30:31;100719.50;;;2.32;100.00
43436;BME280;36399;51.444;-2.018;2023-04-15T02:32:58;100728.91;;;2.47;100.00
43436;BME280;36399;51.444;-2.018;2023-04-15T02:35:24;100727.41;;;2.52;100.00
43436;BME280;36399;51.444;-2.018;2023-04-15T02:37:51;100731.94;;;2.57;100.00
43436;BME280;36399;51.444;-2.018;2023-04-15T02:40:17;100737.53;;;2.64;100.00
43436;BME280;36399;51.444;-2.018;2023-04-15T02:42:43;100729.75;;;2.64;100.00
43436;BME280;36399;51.444;-2.018;2023-04-15T02:45:10;100739.97;;;2.61;100.00
43436;BME280;36399;51.444;-2.018;2023-04-15T02:47:37;100744.03;;;2.74;100.00
43436;BME280;36399;51.444;-2.018;2023-04-15T02:50:08;100748.25;;;2.90;100.00
43436;BME280;36399;51.444;-2.018;2023-04-15T02:52:35;100750.78;;;2.88;100.00
43436;BME280;36399;51.444;-2.018;2023-04-15T02:55:01;100751.00;;;2.93;100.00
43436;BME280;36399;51.444;-2.018;2023-04-15T02:57:29;100757.00;;;2.92;100.00
43436;BME280;36399;51.444;-2.018;2023-04-15T02:59:55;100758.84;;;2.94;100.00
43436;BME280;36399;51.444;-2.018;2023-04-15T03:02:21;100757.00;;;2.92;100.00
43436;BME280;36399;51.444;-2.018;2023-04-15T03:04:47;100761.13;;;2.88;100.00
43436;BME280;36399;51.444;-2.018;2023-04-15T03:07:13;100762.47;;;2.80;100.00
43436;BME280;36399;51.444;-2.018;2023-04-15T03:09:39;100765.59;;;2.73;100.00
43436;BME280;36399;51.444;-2.018;2023-04-15T03:12:06;100776.25;;;2.61;100.00
43436;BME280;36399;51.444;-2.018;2023-04-15T03:14:32;100785.75;;;2.44;100.00
43436;BME280;36399;51.444;-2.018;2023-04-15T03:16:58;100780.94;;;2.34;100.00
43436;BME280;36399;51.444;-2.018;2023-04-15T03:19:24;100787.25;;;2.23;100.00
43436;BME280;36399;51.444;-2.018;2023-04-15T03:21:50;100795.22;;;2.10;100.00
43436;BME280;36399;51.444;-2.018;2023-04-15T03:24:17;100807.34;;;2.11;100.00
43436;BME280;36399;51.444;-2.018;2023-04-15T03:26:43;100812.59;;;1.96;100.00
43436;BME280;36399;51.444;-2.018;2023-04-15T03:29:09;100810.66;;;1.92;100.00
43436;BME280;36399;51.444;-2.018;2023-04-15T03:31:34;100815.59;;;1.87;100.00
43436;BME280;36399;51.444;-2.018;2023-04-15T03:34:01;100817.88;;;1.81;100.00
43436;BME280;36399;51.444;-2.018;2023-04-15T03:36:28;100821.25;;;1.80;100.00
43436;BME280;36399;51.444;-2.018;2023-04-15T03:38:56;100830.81;;;1.81;100.00
43436;BME280;36399;51.444;-2.018;2023-04-15T03:41:23;100826.91;;;1.73;100.00
43436;BME280;36399;51.444;-2.018;2023-04-15T03:43:49;100835.66;;;1.59;100.00
43436;BME280;36399;51.444;-2.018;2023-04-15T03:46:17;100836.88;;;1.66;100.00
43436;BME280;36399;51.444;-2.018;2023-04-15T03:48:43;100839.13;;;1.76;100.00
43436;BME280;36399;51.444;-2.018;2023-04-15T03:51:09;100839.47;;;1.82;100.00
43436;BME280;36399;51.444;-2.018;2023-04-15T03:53:35;100849.75;;;1.97;100.00
43436;BME280;36399;51.444;-2.018;2023-04-15T03:56:01;100851.50;;;1.98;100.00
43436;BME280;36399;51.444;-2.018;2023-04-15T03:58:27;100847.63;;;2.06;100.00
43436;BME280;36399;51.444;-2.018;2023-04-15T04:00:53;100847.91;;;2.10;100.00
43436;BME280;36399;51.444;-2.018;2023-04-15T04:03:19;100858.19;;;2.09;100.00
43436;BME280;36399;51.444;-2.018;2023-04-15T04:05:45;100855.19;;;2.17;100.00
43436;BME280;36399;51.444;-2.018;2023-04-15T04:08:12;100861.91;;;2.14;100.00
43436;BME280;36399;51.444;-2.018;2023-04-15T04:10:41;100867.91;;;2.13;100.00
43436;BME280;36399;51.444;-2.018;2023-04-15T04:13:07;100864.13;;;2.08;100.00
43436;BME280;36399;51.444;-2.018;2023-04-15T04:15:33;100868.25;;;2.04;100.00
43436;BME280;36399;51.444;-2.018;2023-04-15T04:17:59;100868.84;;;1.99;100.00
43436;BME280;36399;51.444;-2.018;2023-04-15T04:20:25;100880.97;;;1.83;100.00
43436;BME280;36399;51.444;-2.018;2023-04-15T04:22:51;100882.34;;;1.93;100.00
43436;BME280;36399;51.444;-2.018;2023-04-15T04:25:17;100881.78;;;1.82;100.00
43436;BME280;36399;51.444;-2.018;2023-04-15T04:27:43;100884.50;;;1.69;100.00
43436;BME280;36399;51.444;-2.018;2023-04-15T04:30:10;100889.00;;;1.57;100.00
43436;BME280;36399;51.444;-2.018;2023-04-15T04:32:36;100899.53;;;1.60;100.00
43436;BME280;36399;51.444;-2.018;2023-04-15T04:35:03;100902.38;;;1.50;100.00
43436;BME280;36399;51.444;-2.018;2023-04-15T04:37:29;100902.94;;;1.44;100.00
43436;BME280;36399;51.444;-2.018;2023-04-15T04:39:55;100908.66;;;1.39;100.00
43436;BME280;36399;51.444;-2.018;2023-04-15T04:42:21;100916.88;;;1.32;100.00
43436;BME280;36399;51.444;-2.018;2023-04-15T04:44:47;100918.47;;;1.30;100.00
43436;BME280;36399;51.444;-2.018;2023-04-15T04:47:13;100925.09;;;1.24;100.00
43436;BME280;36399;51.444;-2.018;2023-04-15T04:49:39;100928.13;;;1.17;100.00
43436;BME280;36399;51.444;-2.018;2023-04-15T04:52:05;100934.53;;;1.39;100.00
43436;BME280;36399;51.444;-2.018;2023-04-15T04:54:32;100942.75;;;1.32;100.00
43436;BME280;36399;51.444;-2.018;2023-04-15T04:56:58;100953.97;;;1.32;100.00
43436;BME280;36399;51.444;-2.018;2023-04-15T04:59:24;100955.03;;;1.36;100.00
43436;BME280;36399;51.444;-2.018;2023-04-15T05:01:50;100971.09;;;1.30;100.00
43436;BME280;36399;51.444;-2.018;2023-04-15T05:04:16;100970.38;;;1.03;100.00
43436;BME280;36399;51.444;-2.018;2023-04-15T05:06:42;100973.59;;;1.29;100.00
43436;BME280;36399;51.444;-2.018;2023-04-15T05:09:08;100982.69;;;1.07;100.00
43436;BME280;36399;51.444;-2.018;2023-04-15T05:11:34;100992.47;;;0.83;100.00
43436;BME280;36399;51.444;-2.018;2023-04-15T05:14:00;100994.03;;;0.67;100.00
43436;BME280;36399;51.444;-2.018;2023-04-15T05:16:27;101000.16;;;0.54;100.00
43436;BME280;36399;51.444;-2.018;2023-04-15T05:18:53;101002.22;;;0.46;100.00
43436;BME280;36399;51.444;-2.018;2023-04-15T05:21:19;101001.25;;;0.44;100.00
43436;BME280;36399;51.444;-2.018;2023-04-15T05:23:46;101003.75;;;0.43;100.00
43436;BME280;36399;51.444;-2.018;2023-04-15T05:26:12;101010.66;;;0.57;100.00
43436;BME280;36399;51.444;-2.018;2023-04-15T05:28:37;101017.03;;;0.77;100.00
43436;BME280;36399;51.444;-2.018;2023-04-15T05:31:05;101025.28;;;0.99;100.00
43436;BME280;36399;51.444;-2.018;2023-04-15T05:33:32;101034.22;;;1.04;100.00
43436;BME280;36399;51.444;-2.018;2023-04-15T05:35:57;101039.78;;;1.25;100.00
43436;BME280;36399;51.444;-2.018;2023-04-15T05:38:23;101054.56;;;1.27;100.00
43436;BME280;36399;51.444;-2.018;2023-04-15T05:40:49;101059.03;;;1.45;100.00
43436;BME280;36399;51.444;-2.018;2023-04-15T05:43:16;101063.78;;;1.52;100.00
43436;BME280;36399;51.444;-2.018;2023-04-15T05:45:42;101061.09;;;1.50;100.00
43436;BME280;36399;51.444;-2.018;2023-04-15T05:48:08;101073.50;;;1.56;100.00
43436;BME280;36399;51.444;-2.018;2023-04-15T05:50:34;101065.94;;;1.59;100.00
43436;BME280;36399;51.444;-2.018;2023-04-15T05:53:01;101078.44;;;1.66;100.00
43436;BME280;36399;51.444;-2.018;2023-04-15T05:55:28;101082.63;;;1.64;100.00
43436;BME280;36399;51.444;-2.018;2023-04-15T05:57:54;101089.59;;;1.65;100.00
43436;BME280;36399;51.444;-2.018;2023-04-15T06:00:20;101089.13;;;1.72;100.00
43436;BME280;36399;51.444;-2.018;2023-04-15T06:02:46;101103.31;;;1.64;100.00
43436;BME280;36399;51.444;-2.018;2023-04-15T06:05:13;101107.78;;;1.67;100.00
43436;BME280;36399;51.444;-2.018;2023-04-15T06:07:39;101113.69;;;1.79;100.00
43436;BME280;36399;51.444;-2.018;2023-04-15T06:10:05;101120.44;;;1.92;100.00
43436;BME280;36399;51.444;-2.018;2023-04-15T06:12:32;101119.53;;;2.06;100.00
43436;BME280;36399;51.444;-2.018;2023-04-15T06:14:58;101123.47;;;2.14;100.00
43436;BME280;36399;51.444;-2.018;2023-04-15T06:17:23;101120.81;;;2.12;100.00
43436;BME280;36399;51.444;-2.018;2023-04-15T06:19:50;101130.78;;;2.21;100.00
43436;BME280;36399;51.444;-2.018;2023-04-15T06:22:21;101139.19;;;2.17;100.00
43436;BME280;36399;51.444;-2.018;2023-04-15T06:24:47;101140.25;;;2.20;100.00
43436;BME280;36399;51.444;-2.018;2023-04-15T06:27:15;101138.09;;;2.28;100.00
43436;BME280;36399;51.444;-2.018;2023-04-15T06:29:41;101153.81;;;2.31;100.00
43436;BME280;36399;51.444;-2.018;2023-04-15T06:32:10;101156.41;;;2.31;100.00
43436;BME280;36399;51.444;-2.018;2023-04-15T06:34:36;101158.06;;;2.45;100.00
43436;BME280;36399;51.444;-2.018;2023-04-15T06:37:06;101166.19;;;2.51;100.00
43436;BME280;36399;51.444;-2.018;2023-04-15T06:39:32;101171.13;;;2.62;100.00
43436;BME280;36399;51.444;-2.018;2023-04-15T06:41:57;101173.41;;;2.72;100.00
43436;BME280;36399;51.444;-2.018;2023-04-15T06:44:23;101180.72;;;2.79;100.00
43436;BME280;36399;51.444;-2.018;2023-04-15T06:46:49;101189.00;;;2.88;100.00
43436;BME280;36399;51.444;-2.018;2023-04-15T06:49:15;101183.41;;;2.97;100.00
43436;BME280;36399;51.444;-2.018;2023-04-15T06:51:42;101186.41;;;3.04;100.00
43436;BME280;36399;51.444;-2.018;2023-04-15T06:54:08;101196.50;;;3.14;100.00
43436;BME280;36399;51.444;-2.018;2023-04-15T06:56:34;101189.88;;;3.36;100.00
43436;BME280;36399;51.444;-2.018;2023-04-15T06:59:00;101198.78;;;3.41;100.00
43436;BME280;36399;51.444;-2.018;2023-04-15T07:01:27;101195.78;;;3.49;100.00
43436;BME280;36399;51.444;-2.018;2023-04-15T07:03:53;101204.22;;;3.62;100.00
43436;BME280;36399;51.444;-2.018;2023-04-15T07:06:18;101209.03;;;3.70;100.00
43436;BME280;36399;51.444;-2.018;2023-04-15T07:08:44;101218.09;;;3.78;100.00
43436;BME280;36399;51.444;-2.018;2023-04-15T07:11:10;101220.28;;;3.87;100.00
43436;BME280;36399;51.444;-2.018;2023-04-15T07:13:36;101215.69;;;3.99;100.00
43436;BME280;36399;51.444;-2.018;2023-04-15T07:16:02;101227.59;;;4.12;100.00
43436;BME280;36399;51.444;-2.018;2023-04-15T07:18:28;101228.75;;;4.17;100.00
43436;BME280;36399;51.444;-2.018;2023-04-15T07:20:54;101239.78;;;4.29;100.00
43436;BME280;36399;51.444;-2.018;2023-04-15T07:23:20;101237.31;;;4.32;100.00
43436;BME280;36399;51.444;-2.018;2023-04-15T07:25:47;101239.72;;;4.46;100.00
43436;BME280;36399;51.444;-2.018;2023-04-15T07:28:13;101246.47;;;4.60;100.00
43436;BME280;36399;51.444;-2.018;2023-04-15T07:30:39;101244.16;;;4.66;100.00
43436;BME280;36399;51.444;-2.018;2023-04-15T07:33:06;101246.59;;;4.79;100.00
43436;BME280;36399;51.444;-2.018;2023-04-15T07:35:32;101245.09;;;4.84;100.00
43436;BME280;36399;51.444;-2.018;2023-04-15T07:37:58;101249.38;;;5.01;100.00
43436;BME280;36399;51.444;-2.018;2023-04-15T07:40:24;101249.81;;;5.11;100.00
43436;BME280;36399;51.444;-2.018;2023-04-15T07:42:50;101252.06;;;5.21;100.00
43436;BME280;36399;51.444;-2.018;2023-04-15T07:45:16;101242.50;;;5.39;100.00
43436;BME280;36399;51.444;-2.018;2023-04-15T07:47:42;101246.13;;;5.43;100.00
43436;BME280;36399;51.444;-2.018;2023-04-15T07:50:09;101245.38;;;5.64;100.00
43436;BME280;36399;51.444;-2.018;2023-04-15T07:52:37;101246.84;;;5.77;100.00
43436;BME280;36399;51.444;-2.018;2023-04-15T07:55:08;101237.66;;;6.05;100.00
43436;BME280;36399;51.444;-2.018;2023-04-15T07:57:35;101238.09;;;6.35;100.00
43436;BME280;36399;51.444;-2.018;2023-04-15T08:00:02;101239.84;;;6.56;100.00
43436;BME280;36399;51.444;-2.018;2023-04-15T08:02:32;101232.41;;;6.86;100.00
43436;BME280;36399;51.444;-2.018;2023-04-15T08:04:58;101223.03;;;6.91;100.00
43436;BME280;36399;51.444;-2.018;2023-04-15T08:07:24;101226.47;;;6.90;100.00
43436;BME280;36399;51.444;-2.018;2023-04-15T08:09:50;101216.03;;;6.90;100.00
43436;BME280;36399;51.444;-2.018;2023-04-15T08:12:17;101218.66;;;6.90;100.00
43436;BME280;36399;51.444;-2.018;2023-04-15T08:14:42;101218.47;;;6.65;100.00
43436;BME280;36399;51.444;-2.018;2023-04-15T08:17:08;101213.06;;;6.81;100.00
43436;BME280;36399;51.444;-2.018;2023-04-15T08:19:34;101215.03;;;6.66;100.00
43436;BME280;36399;51.444;-2.018;2023-04-15T08:22:00;101208.56;;;6.77;100.00
43436;BME280;36399;51.444;-2.018;2023-04-15T08:24:27;101213.25;;;6.65;100.00
43436;BME280;36399;51.444;-2.018;2023-04-15T08:26:53;101212.47;;;6.88;100.00
43436;BME280;36399;51.444;-2.018;2023-04-15T08:29:19;101207.06;;;7.06;100.00
43436;BME280;36399;51.444;-2.018;2023-04-15T08:31:45;101196.63;;;7.06;100.00
43436;BME280;36399;51.444;-2.018;2023-04-15T08:34:12;101193.47;;;7.15;100.00
43436;BME280;36399;51.444;-2.018;2023-04-15T08:36:38;101183.63;;;7.08;100.00
43436;BME280;36399;51.444;-2.018;2023-04-15T08:39:04;101181.03;;;7.30;100.00
43436;BME280;36399;51.444;-2.018;2023-04-15T08:41:50;101168.25;;;7.38;100.00
43436;BME280;36399;51.444;-2.018;2023-04-15T08:44:17;101171.97;;;7.68;100.00
43436;BME280;36399;51.444;-2.018;2023-04-15T08:46:43;101162.44;;;7.70;100.00
43436;BME280;36399;51.444;-2.018;2023-04-15T08:49:10;101159.03;;;7.97;100.00
43436;BME280;36399;51.444;-2.018;2023-04-15T08:51:39;101143.50;;;8.01;100.00
43436;BME280;36399;51.444;-2.018;2023-04-15T08:54:07;101130.00;;;8.14;100.00
43436;BME280;36399;51.444;-2.018;2023-04-15T08:56:33;101114.09;;;8.08;100.00
43436;BME280;36399;51.444;-2.018;2023-04-15T08:59:00;101106.38;;;8.11;100.00
43436;BME280;36399;51.444;-2.018;2023-04-15T09:01:26;101108.50;;;8.23;100.00
43436;BME280;36399;51.444;-2.018;2023-04-15T09:03:53;101104.63;;;8.12;100.00
43436;BME280;36399;51.444;-2.018;2023-04-15T09:06:20;101110.97;;;8.18;100.00
43436;BME280;36399;51.444;-2.018;2023-04-15T09:08:46;101115.44;;;8.22;100.00
43436;BME280;36399;51.444;-2.018;2023-04-15T09:11:12;101112.75;;;8.45;100.00
43436;BME280;36399;51.444;-2.018;2023-04-15T09:13:39;101107.75;;;8.52;100.00
43436;BME280;36399;51.444;-2.018;2023-04-15T09:16:05;101107.31;;;8.67;100.00
43436;BME280;36399;51.444;-2.018;2023-04-15T09:18:33;101106.34;;;8.64;100.00
43436;BME280;36399;51.444;-2.018;2023-04-15T09:21:07;101098.63;;;8.68;100.00
43436;BME280;36399;51.444;-2.018;2023-04-15T09:23:34;101098.31;;;8.86;100.00
43436;BME280;36399;51.444;-2.018;2023-04-15T09:26:01;101101.25;;;8.97;100.00
43436;BME280;36399;51.444;-2.018;2023-04-15T09:28:28;101096.16;;;9.33;100.00
43436;BME280;36399;51.444;-2.018;2023-04-15T09:30:55;101101.28;;;9.60;100.00
43436;BME280;36399;51.444;-2.018;2023-04-15T09:33:22;101098.38;;;9.82;100.00
43436;BME280;36399;51.444;-2.018;2023-04-15T09:36:00;101091.50;;;9.87;100.00
43436;BME280;36399;51.444;-2.018;2023-04-15T09:38:26;101103.69;;;9.85;100.00
43436;BME280;36399;51.444;-2.018;2023-04-15T09:40:53;101108.22;;;9.89;100.00
43436;BME280;36399;51.444;-2.018;2023-04-15T09:43:19;101099.91;;;10.07;100.00
43436;BME280;36399;51.444;-2.018;2023-04-15T09:45:48;101105.84;;;9.67;100.00
43436;BME280;36399;51.444;-2.018;2023-04-15T09:48:24;101105.75;;;9.95;100.00
43436;BME280;36399;51.444;-2.018;2023-04-15T09:50:56;101103.69;;;10.18;100.00
43436;BME280;36399;51.444;-2.018;2023-04-15T09:53:23;101109.53;;;10.06;100.00
43436;BME280;36399;51.444;-2.018;2023-04-15T09:55:57;101109.94;;;9.89;100.00
43436;BME280;36399;51.444;-2.018;2023-04-15T09:58:25;101112.34;;;9.81;100.00
43436;BME280;36399;51.444;-2.018;2023-04-15T10:00:53;101112.31;;;10.14;100.00
43436;BME280;36399;51.444;-2.018;2023-04-15T10:03:26;101119.19;;;10.09;100.00
43436;BME280;36399;51.444;-2.018;2023-04-15T10:05:54;101122.47;;;10.00;100.00
43436;BME280;36399;51.444;-2.018;2023-04-15T10:08:23;101126.81;;;9.98;100.00
43436;BME280;36399;51.444;-2.018;2023-04-15T10:10:50;101129.13;;;10.21;100.00
43436;BME280;36399;51.444;-2.018;2023-04-15T10:13:19;101128.50;;;10.67;100.00
43436;BME280;36399;51.444;-2.018;2023-04-15T10:18:18;101129.34;;;10.64;100.00
43436;BME280;36399;51.444;-2.018;2023-04-15T10:20:47;101137.88;;;10.56;100.00
43436;BME280;36399;51.444;-2.018;2023-04-15T10:23:14;101137.19;;;10.28;100.00
43436;BME280;36399;51.444;-2.018;2023-04-15T10:25:40;101139.19;;;10.38;100.00
43436;BME280;36399;51.444;-2.018;2023-04-15T10:28:07;101137.66;;;11.23;100.00
43436;BME280;36399;51.444;-2.018;2023-04-15T10:30:35;101150.41;;;11.46;100.00
43436;BME280;36399;51.444;-2.018;2023-04-15T10:33:03;101151.25;;;11.45;100.00
43436;BME280;36399;51.444;-2.018;2023-04-15T10:35:30;101158.34;;;11.49;100.00
43436;BME280;36399;51.444;-2.018;2023-04-15T10:37:57;101150.47;;;11.94;100.00
43436;BME280;36399;51.444;-2.018;2023-04-15T10:40:28;101150.59;;;11.14;100.00
43436;BME280;36399;51.444;-2.018;2023-04-15T10:43:00;101151.69;;;10.85;100.00
43436;BME280;36399;51.444;-2.018;2023-04-15T10:45:30;101155.84;;;11.55;100.00
43436;BME280;36399;51.444;-2.018;2023-04-15T10:47:58;101158.00;;;11.33;100.00
43436;BME280;36399;51.444;-2.018;2023-04-15T10:50:26;101158.81;;;11.73;100.00
43436;BME280;36399;51.444;-2.018;2023-04-15T10:52:52;101163.09;;;11.26;100.00
43436;BME280;36399;51.444;-2.018;2023-04-15T10:55:21;101155.47;;;10.96;100.00
43436;BME280;36399;51.444;-2.018;2023-04-15T10:57:52;101156.94;;;11.66;100.00
43436;BME280;36399;51.444;-2.018;2023-04-15T11:00:19;101158.34;;;12.42;100.00
43436;BME280;36399;51.444;-2.018;2023-04-15T11:05:17;101155.69;;;12.98;100.00
43436;BME280;36399;51.444;-2.018;2023-04-15T11:07:55;101152.97;;;12.93;100.00
43436;BME280;36399;51.444;-2.018;2023-04-15T11:12:56;101178.53;;;11.93;100.00
43436;BME280;36399;51.444;-2.018;2023-04-15T11:20:37;101194.56;;;12.06;100.00
43436;BME280;36399;51.444;-2.018;2023-04-15T11:23:03;101188.59;;;11.72;100.00
43436;BME280;36399;51.444;-2.018;2023-04-15T11:25:31;101193.75;;;11.66;100.00
43436;BME280;36399;51.444;-2.018;2023-04-15T11:27:59;101191.13;;;11.66;100.00
43436;BME280;36399;51.444;-2.018;2023-04-15T11:30:27;101196.53;;;12.17;100.00
43436;BME280;36399;51.444;-2.018;2023-04-15T11:32:58;101192.69;;;13.68;100.00
43436;BME280;36399;51.444;-2.018;2023-04-15T11:35:24;101164.81;;;14.94;100.00
43436;BME280;36399;51.444;-2.018;2023-04-15T11:37:50;101160.94;;;16.53;100.00
43436;BME280;36399;51.444;-2.018;2023-04-15T11:40:35;101172.16;;;15.45;100.00
43436;BME280;36399;51.444;-2.018;2023-04-15T11:43:22;101171.13;;;14.07;100.00
43436;BME280;36399;51.444;-2.018;2023-04-15T11:48:16;101193.31;;;13.50;100.00
43436;BME280;36399;51.444;-2.018;2023-04-15T11:50:43;101186.47;;;13.61;100.00
43436;BME280;36399;51.444;-2.018;2023-04-15T11:53:11;101188.41;;;13.12;100.00
43436;BME280;36399;51.444;-2.018;2023-04-15T11:55:48;101208.91;;;12.23;100.00
43436;BME280;36399;51.444;-2.018;2023-04-15T12:01:03;101202.22;;;12.43;100.00
43436;BME280;36399;51.444;-2.018;2023-04-15T12:06:09;101181.84;;;15.43;100.00
43436;BME280;36399;51.444;-2.018;2023-04-15T12:13:56;101204.69;;;13.44;100.00
43436;BME280;36399;51.444;-2.018;2023-04-15T12:16:23;101208.03;;;12.74;100.00
43436;BME280;36399;51.444;-2.018;2023-04-15T12:18:53;101209.34;;;13.62;100.00
43436;BME280;36399;51.444;-2.018;2023-04-15T12:21:25;101194.94;;;15.11;100.00
43436;BME280;36399;51.444;-2.018;2023-04-15T12:23:53;101189.13;;;15.99;100.00
43436;BME280;36399;51.444;-2.018;2023-04-15T12:26:32;101170.44;;;17.69;100.00
43436;BME280;36399;51.444;-2.018;2023-04-15T12:29:09;101187.16;;;15.45;100.00
43436;BME280;36399;51.444;-2.018;2023-04-15T12:31:36;101188.22;;;14.42;100.00
43436;BME280;36399;51.444;-2.018;2023-04-15T12:34:05;101196.91;;;14.32;100.00
43436;BME280;36399;51.444;-2.018;2023-04-15T12:36:32;101188.84;;;15.28;100.00
43436;BME280;36399;51.444;-2.018;2023-04-15T12:39:05;101198.84;;;15.93;100.00
43436;BME280;36399;51.444;-2.018;2023-04-15T12:41:31;101191.69;;;17.72;100.00
43436;BME280;36399;51.444;-2.018;2023-04-15T12:44:00;101192.34;;;18.10;100.00
43436;BME280;36399;51.444;-2.018;2023-04-15T12:46:26;101198.97;;;16.87;100.00
43436;BME280;36399;51.444;-2.018;2023-04-15T12:48:53;101191.69;;;17.59;100.00
43436;BME280;36399;51.444;-2.018;2023-04-15T12:51:19;101200.72;;;16.91;100.00
43436;BME280;36399;51.444;-2.018;2023-04-15T12:53:48;101218.19;;;15.70;100.00
43436;BME280;36399;51.444;-2.018;2023-04-15T12:56:15;101236.84;;;14.63;100.00
43436;BME280;36399;51.444;-2.018;2023-04-15T12:58:41;101231.66;;;13.92;100.00
43436;BME280;36399;51.444;-2.018;2023-04-15T13:01:08;101235.09;;;14.62;100.00
43436;BME280;36399;51.444;-2.018;2023-04-15T13:03:35;101231.81;;;14.96;100.00